Terminal Aerodrome Forecast
Issued by NWS

Home | Current Version | Previous Version | Text Only | Print | Product List | Glossary On
Versions: 1 2 3 4 5 6 7 8 9 10 11 12 13 14
000
FTUS42 TJSJ 242300
TAFKPK
TAF
TKPK 242327Z 2500/2524 07014KT P6SM VCSH FEW020 SCT040
     FM251300 07015KT P6SM VCSH SCT020 SCT040
     FM252200 08012KT P6SM FEW018
      AMD NOT SKED 2502/2511=

USA.gov is the U.S. government's official web portal to all federal, state and local government web resources and services.